createdAt,value
2023-05-24T00:01:48.064Z,63.62
2023-05-24T00:04:14.654Z,63.46
2023-05-24T00:06:44.145Z,63.40
2023-05-24T00:09:12.211Z,63.11
2023-05-24T00:11:38.766Z,63.19
2023-05-24T00:14:05.528Z,63.37
2023-05-24T00:16:32.443Z,63.33
2023-05-24T00:18:58.985Z,63.11
2023-05-24T00:21:25.580Z,63.03
2023-05-24T00:23:52.120Z,63.56
2023-05-24T00:26:18.740Z,63.64
2023-05-24T00:28:47.911Z,63.88
2023-05-24T00:31:14.372Z,63.88
2023-05-24T00:33:40.961Z,64.11
2023-05-24T00:36:07.490Z,64.23
2023-05-24T00:38:34.101Z,64.55
2023-05-24T00:41:00.669Z,64.35
2023-05-24T00:43:27.197Z,64.10
2023-05-24T00:46:22.307Z,64.36
2023-05-24T00:48:50.251Z,64.69
2023-05-24T00:51:18.092Z,65.06
2023-05-24T00:53:47.408Z,65.46
2023-05-24T00:56:15.226Z,65.51
2023-05-24T00:58:42.625Z,65.80
2023-05-24T01:01:10.392Z,65.99
2023-05-24T01:03:37.115Z,66.41
2023-05-24T01:06:06.986Z,66.26
2023-05-24T01:08:57.324Z,66.37
2023-05-24T01:11:34.943Z,65.90
2023-05-24T01:14:25.771Z,66.03
2023-05-24T01:17:02.953Z,65.76
2023-05-24T01:19:48.998Z,65.24
2023-05-24T01:22:41.502Z,65.42
2023-05-24T01:25:22.151Z,65.47
2023-05-24T01:27:50.134Z,65.73
2023-05-24T01:30:16.942Z,65.34
2023-05-24T01:32:43.618Z,65.48
2023-05-24T01:35:10.437Z,65.10
2023-05-24T01:37:37.433Z,65.31
2023-05-24T01:40:05.568Z,65.20
2023-05-24T01:42:58.119Z,65.32
2023-05-24T01:59:38.830Z,65.14
2023-05-24T02:03:22.871Z,64.75
2023-05-24T02:07:00.793Z,64.77
2023-05-24T02:20:45.107Z,64.34
2023-05-24T02:31:09.833Z,64.95
2023-05-24T02:44:34.855Z,65.75
2023-05-24T02:51:44.836Z,65.81
2023-05-24T02:58:36.797Z,66.17
2023-05-24T03:05:37.794Z,66.96
2023-05-24T03:12:45.825Z,67.12
2023-05-24T03:21:03.857Z,67.11
2023-05-24T03:24:27.176Z,66.95
2023-05-24T03:28:13.473Z,66.99
2023-05-24T03:31:20.166Z,67.57
2023-05-24T03:34:46.796Z,67.30
2023-05-24T03:37:47.673Z,68.28
2023-05-24T03:41:00.055Z,67.85
2023-05-24T03:43:55.773Z,67.65
2023-05-24T03:47:28.789Z,67.40
2023-05-24T03:51:06.925Z,67.34
2023-05-24T03:54:39.752Z,66.73
2023-05-24T03:58:17.799Z,66.09
2023-05-24T04:01:49.808Z,65.76
2023-05-24T04:08:47.805Z,65.04
2023-05-24T04:12:22.834Z,65.07
2023-05-24T04:16:01.816Z,64.93
2023-05-24T04:19:30.780Z,65.00
2023-05-24T04:23:01.849Z,65.05
2023-05-24T04:26:39.770Z,64.89
2023-05-24T04:30:15.853Z,64.89
2023-05-24T04:33:55.106Z,65.17
2023-05-24T04:37:31.846Z,64.87
2023-05-24T04:41:04.793Z,64.71
2023-05-24T04:44:41.822Z,64.50
2023-05-24T04:48:16.249Z,64.22
2023-05-24T04:51:48.838Z,63.97
2023-05-24T04:54:57.853Z,64.24
2023-05-24T04:58:29.141Z,63.99
2023-05-24T05:01:55.111Z,63.65
2023-05-24T05:05:26.800Z,63.14
2023-05-24T05:09:01.858Z,62.66
2023-05-24T05:12:55.053Z,62.39
2023-05-24T05:16:33.885Z,62.46
2023-05-24T05:19:57.854Z,62.18
2023-05-24T05:41:16.794Z,61.03
2023-05-24T05:45:04.626Z,60.82
2023-05-24T05:48:16.932Z,60.70
2023-05-24T05:51:28.510Z,60.56
2023-05-24T05:54:45.007Z,60.24
2023-05-24T05:57:15.808Z,60.44
2023-05-24T05:59:43.084Z,60.28
2023-05-24T06:02:21.991Z,60.28
2023-05-24T06:04:49.261Z,60.09
2023-05-24T06:07:19.389Z,60.22
2023-05-24T06:10:03.438Z,60.14
2023-05-24T06:12:30.583Z,59.97
2023-05-24T06:16:03.291Z,59.93
2023-05-24T06:22:31.045Z,59.30
2023-05-24T06:25:46.054Z,59.80
2023-05-24T06:32:46.467Z,57.82
2023-05-24T06:44:31.465Z,53.65
2023-05-24T06:51:45.126Z,54.09
2023-05-24T07:06:57.207Z,52.31
2023-05-24T07:26:57.400Z,49.79
2023-05-24T07:30:47.135Z,49.64
2023-05-24T07:47:38.210Z,47.61
2023-05-24T07:52:23.666Z,47.67
2023-05-24T09:05:44.527Z,42.50
2023-05-24T09:19:56.030Z,41.69
2023-05-24T09:23:15.373Z,41.59
2023-05-24T09:30:13.427Z,40.96
2023-05-24T09:33:01.409Z,41.10
2023-05-24T09:35:34.451Z,41.45
2023-05-24T09:38:06.326Z,40.95
2023-05-24T09:40:39.401Z,40.80
2023-05-24T09:43:17.550Z,41.21
2023-05-24T09:45:56.473Z,40.41
2023-05-24T09:48:32.487Z,40.71
2023-05-24T09:51:26.923Z,40.09
2023-05-24T09:55:06.558Z,39.97
2023-05-24T09:58:28.996Z,40.47
2023-05-24T10:02:22.050Z,40.57
2023-05-24T10:05:22.659Z,40.06
2023-05-24T10:08:23.324Z,39.18
2023-05-24T10:12:21.722Z,37.26
2023-05-24T10:15:45.837Z,35.77
2023-05-24T10:19:23.226Z,35.33
2023-05-24T10:22:19.470Z,35.21
2023-05-24T10:25:54.160Z,35.61
2023-05-24T10:29:01.320Z,36.50
2023-05-24T12:49:45.643Z,94.82
2023-05-24T12:53:38.526Z,94.96
2023-05-24T12:57:29.201Z,95.22
2023-05-24T13:14:35.306Z,96.09
2023-05-24T13:22:05.217Z,96.35
2023-05-24T13:26:28.693Z,96.46
2023-05-24T13:30:18.393Z,97.32
2023-05-24T13:34:15.742Z,97.56
2023-05-24T13:48:04.767Z,96.81
2023-05-24T14:41:54.385Z,91.61
2023-05-24T14:44:47.577Z,91.20
2023-05-24T14:47:35.833Z,91.33
2023-05-24T14:51:07.714Z,89.68
2023-05-24T14:53:49.178Z,88.47
2023-05-24T14:57:02.389Z,87.67
2023-05-24T15:00:14.401Z,86.01
2023-05-24T15:02:43.580Z,86.82
2023-05-24T15:05:12.086Z,88.19
2023-05-24T15:08:13.108Z,87.60
2023-05-24T15:12:14.058Z,86.71
2023-05-24T15:16:42.889Z,85.05
2023-05-24T15:21:11.845Z,84.39
2023-05-24T15:24:50.048Z,84.07
2023-05-24T15:27:43.806Z,84.06
2023-05-24T15:30:13.474Z,84.24
2023-05-24T15:33:02.362Z,84.20
2023-05-24T15:36:17.140Z,84.68
2023-05-24T15:39:46.108Z,84.02
2023-05-24T15:43:17.123Z,84.27
2023-05-24T15:51:46.327Z,84.87
2023-05-24T15:54:34.950Z,85.07
2023-05-24T15:57:22.288Z,84.88
2023-05-24T15:59:49.917Z,85.08
2023-05-24T16:02:48.447Z,85.24
2023-05-24T16:06:09.380Z,85.43
2023-05-24T16:09:29.360Z,85.54
2023-05-24T16:13:12.388Z,85.53
2023-05-24T16:16:28.455Z,84.85
2023-05-24T16:25:07.371Z,86.89
2023-05-24T16:31:19.439Z,87.16
2023-05-24T16:34:26.350Z,87.82
2023-05-24T16:37:26.505Z,87.86
2023-05-24T16:41:12.491Z,87.53
2023-05-24T16:44:17.715Z,86.94
2023-05-24T16:47:48.566Z,87.38
2023-05-24T16:51:05.449Z,88.33
2023-05-24T16:54:24.426Z,89.53
2023-05-24T16:57:42.162Z,89.72
2023-05-24T17:00:09.647Z,90.18
2023-05-24T17:02:36.455Z,90.44
2023-05-24T17:05:03.210Z,89.99
2023-05-24T17:07:31.004Z,90.12
2023-05-24T17:09:58.625Z,89.84
2023-05-24T17:12:28.877Z,90.37
2023-05-24T17:14:55.572Z,90.79
2023-05-24T17:17:22.253Z,90.27
2023-05-24T17:19:49.133Z,90.47
2023-05-24T17:22:15.792Z,91.18
2023-05-24T17:24:42.475Z,91.32
2023-05-24T17:27:09.117Z,91.22
2023-05-24T17:29:36.469Z,91.05
2023-05-24T17:32:03.850Z,90.63
2023-05-24T17:34:30.655Z,90.73
2023-05-24T17:36:57.189Z,90.86
2023-05-24T17:39:25.601Z,90.93
2023-05-24T17:41:52.225Z,91.11
2023-05-24T17:44:18.852Z,91.21
2023-05-24T17:46:45.680Z,91.64
2023-05-24T17:49:13.363Z,92.10
2023-05-24T17:51:39.964Z,92.03
2023-05-24T17:54:06.882Z,92.67
2023-05-24T17:56:33.696Z,92.82
2023-05-24T17:59:00.537Z,92.98
2023-05-24T18:01:28.440Z,92.77
2023-05-24T18:03:55.148Z,92.58
2023-05-24T18:06:22.013Z,92.61
2023-05-24T18:08:48.729Z,92.98
2023-05-24T18:11:49.762Z,93.55
2023-05-24T18:15:10.477Z,93.54
2023-05-24T18:18:26.550Z,93.51
2023-05-24T18:33:41.853Z,93.09
2023-05-24T18:37:36.042Z,93.06
2023-05-24T18:44:37.248Z,92.89
2023-05-24T18:47:06.076Z,93.02
2023-05-24T18:49:35.399Z,93.00
2023-05-24T18:52:03.134Z,93.00
2023-05-24T18:54:30.279Z,93.05
2023-05-24T18:56:59.180Z,93.28
2023-05-24T18:59:28.469Z,93.78
2023-05-24T19:01:55.960Z,93.75
2023-05-24T19:04:25.996Z,93.76
2023-05-24T19:06:54.235Z,93.88
2023-05-24T19:09:21.249Z,93.96
2023-05-24T19:11:48.634Z,93.96
2023-05-24T19:14:19.424Z,93.91
2023-05-24T19:16:47.091Z,94.11
2023-05-24T19:19:16.879Z,94.21
2023-05-24T19:21:45.825Z,94.15
2023-05-24T19:24:12.246Z,94.04
2023-05-24T19:26:38.808Z,94.10
2023-05-24T19:29:05.577Z,94.22
2023-05-24T19:31:35.010Z,94.25
2023-05-24T19:34:02.060Z,94.16
2023-05-24T19:36:30.155Z,94.37
2023-05-24T19:38:58.432Z,94.59
2023-05-24T19:41:26.086Z,94.27
2023-05-24T19:43:56.268Z,94.15
2023-05-24T19:46:23.592Z,93.63
2023-05-24T19:48:50.347Z,93.65
2023-05-24T19:51:17.065Z,93.60
2023-05-24T19:53:43.874Z,93.58
2023-05-24T19:56:10.683Z,93.80
2023-05-24T19:58:38.034Z,93.63
2023-05-24T20:01:04.895Z,93.37
2023-05-24T20:03:31.852Z,93.18
2023-05-24T20:05:59.301Z,93.05
2023-05-24T20:08:27.118Z,93.03
2023-05-24T20:57:56.441Z,93.02
2023-05-24T21:12:28.113Z,93.31
2023-05-24T21:29:42.811Z,93.15
2023-05-24T21:52:25.022Z,91.92
2023-05-24T21:59:17.345Z,92.11
2023-05-24T22:23:43.544Z,92.10
2023-05-24T22:52:46.323Z,91.16
2023-05-24T22:56:47.650Z,91.66
2023-05-24T23:03:21.057Z,91.48
2023-05-24T23:07:10.782Z,91.36
2023-05-24T23:11:09.019Z,91.30
2023-05-24T23:18:26.694Z,91.46
2023-05-24T23:22:35.115Z,91.53
2023-05-24T23:27:04.087Z,91.73
2023-05-24T23:31:10.796Z,92.07
2023-05-24T23:39:31.398Z,91.95
2023-05-24T23:43:19.759Z,91.83
2023-05-24T23:50:57.050Z,91.61
